sensor_id;sensor_type;location;lat;lon;timestamp;pressure;altitude;pressure_sealevel;temperature;humidity
68145;BME280;55400;51.824;-0.196;2023-02-11T00:02:05;102549.83;;;6.11;82.76
68145;BME280;55400;51.824;-0.196;2023-02-11T00:06:06;102555.58000000002;;;6.15;82.86
68145;BME280;55400;51.824;-0.196;2023-02-11T00:10:06;102556.13;;;6.18;83.10
68145;BME280;55400;51.824;-0.196;2023-02-11T00:14:05;102556.13;;;6.23;83.12
68145;BME280;55400;51.824;-0.196;2023-02-11T00:18:05;102559.03000000001;;;6.26;83.16
68145;BME280;55400;51.824;-0.196;2023-02-11T00:22:05;102559.03000000001;;;6.29;83.16
68145;BME280;55400;51.824;-0.196;2023-02-11T00:26:10;102563.49;;;6.30;83.13
68145;BME280;55400;51.824;-0.196;2023-02-11T00:30:06;102563.49;;;6.31;83.21
68145;BME280;55400;51.824;-0.196;2023-02-11T00:34:05;102571.32999999999;;;6.33;83.23
68145;BME280;55400;51.824;-0.196;2023-02-11T00:42:06;102568.40999999999;;;6.35;83.33
68145;BME280;55400;51.824;-0.196;2023-02-11T00:46:06;102568.40999999999;;;6.38;83.23
68145;BME280;55400;51.824;-0.196;2023-02-11T00:50:05;102556.18999999999;;;6.39;83.33
68145;BME280;55400;51.824;-0.196;2023-02-11T00:54:05;102562.74;;;6.41;83.29
68145;BME280;55400;51.824;-0.196;2023-02-11T00:58:06;102570.47;;;6.42;83.26
68145;BME280;55400;51.824;-0.196;2023-02-11T01:02:05;102557.37;;;6.44;83.24
68145;BME280;55400;51.824;-0.196;2023-02-11T01:10:06;102560.77;;;6.45;83.37
68145;BME280;55400;51.824;-0.196;2023-02-11T01:14:06;102560.23;;;6.46;83.52
68145;BME280;55400;51.824;-0.196;2023-02-11T01:18:05;102560.23;;;6.44;83.61
68145;BME280;55400;51.824;-0.196;2023-02-11T01:22:05;102560.23;;;6.43;83.76
68145;BME280;55400;51.824;-0.196;2023-02-11T01:30:07;102554.5;;;6.44;83.80
68145;BME280;55400;51.824;-0.196;2023-02-11T01:34:05;102550.55;;;6.45;83.80
68145;BME280;55400;51.824;-0.196;2023-02-11T01:42:06;102537.15;;;6.46;83.83
68145;BME280;55400;51.824;-0.196;2023-02-11T01:46:11;102539.69;;;6.45;83.78
68145;BME280;55400;51.824;-0.196;2023-02-11T01:54:06;102530.31000000001;;;6.42;83.99
68145;BME280;55400;51.824;-0.196;2023-02-11T01:58:06;102532.69;;;6.40;84.17
68145;BME280;55400;51.824;-0.196;2023-02-11T02:06:06;102535.42;;;6.42;84.01
68145;BME280;55400;51.824;-0.196;2023-02-11T02:10:07;102535.42;;;6.43;83.98
68145;BME280;55400;51.824;-0.196;2023-02-11T02:18:08;102527.37999999999;;;6.42;84.13
68145;BME280;55400;51.824;-0.196;2023-02-11T02:22:14;102516.23999999999;;;6.44;84.13
68145;BME280;55400;51.824;-0.196;2023-02-11T02:26:15;102507.46999999999;;;6.45;84.08
68145;BME280;55400;51.824;-0.196;2023-02-11T02:34:06;102507.90999999999;;;6.47;83.90
68145;BME280;55400;51.824;-0.196;2023-02-11T02:38:07;102500.76;;;6.43;83.90
68145;BME280;55400;51.824;-0.196;2023-02-11T02:42:06;102500.76;;;6.41;83.97
68145;BME280;55400;51.824;-0.196;2023-02-11T02:46:10;102499.22999999998;;;6.38;84.08
68145;BME280;55400;51.824;-0.196;2023-02-11T02:54:13;102505.09;;;6.37;84.03
68145;BME280;55400;51.824;-0.196;2023-02-11T03:06:07;102511.99999999999;;;6.39;84.16
68145;BME280;55400;51.824;-0.196;2023-02-11T03:10:07;102497.42000000001;;;6.40;84.16
68145;BME280;55400;51.824;-0.196;2023-02-11T03:14:07;102497.42000000001;;;6.43;84.18
68145;BME280;55400;51.824;-0.196;2023-02-11T03:18:06;102486.79;;;6.41;84.11
68145;BME280;55400;51.824;-0.196;2023-02-11T03:22:07;102486.79;;;6.39;84.33
68145;BME280;55400;51.824;-0.196;2023-02-11T03:26:08;102474.48999999999;;;6.37;84.31
68145;BME280;55400;51.824;-0.196;2023-02-11T03:34:07;102484.22;;;6.36;84.49
68145;BME280;55400;51.824;-0.196;2023-02-11T03:42:06;102485.95;;;6.37;84.36
68145;BME280;55400;51.824;-0.196;2023-02-11T03:46:06;102485.95;;;6.39;84.36
68145;BME280;55400;51.824;-0.196;2023-02-11T03:50:07;102483.5;;;6.41;84.54
68145;BME280;55400;51.824;-0.196;2023-02-11T03:54:08;102492.96999999999;;;6.44;84.40
68145;BME280;55400;51.824;-0.196;2023-02-11T03:58:06;102491.76;;;6.46;84.34
68145;BME280;55400;51.824;-0.196;2023-02-11T04:02:06;102491.76;;;6.48;84.42
68145;BME280;55400;51.824;-0.196;2023-02-11T04:06:06;102498.27;;;6.51;84.36
68145;BME280;55400;51.824;-0.196;2023-02-11T04:10:06;102498.27;;;6.52;84.33
68145;BME280;55400;51.824;-0.196;2023-02-11T04:14:06;102493.46;;;6.54;84.33
68145;BME280;55400;51.824;-0.196;2023-02-11T04:18:06;102495.81000000001;;;6.55;84.31
68145;BME280;55400;51.824;-0.196;2023-02-11T04:26:06;102508.53;;;6.54;84.33
68145;BME280;55400;51.824;-0.196;2023-02-11T04:34:06;102517.36000000002;;;6.55;84.39
68145;BME280;55400;51.824;-0.196;2023-02-11T04:38:06;102517.36000000002;;;6.53;84.35
68145;BME280;55400;51.824;-0.196;2023-02-11T04:42:06;102519.38;;;6.54;84.45
68145;BME280;55400;51.824;-0.196;2023-02-11T04:46:06;102522.73;;;6.52;84.46
68145;BME280;55400;51.824;-0.196;2023-02-11T04:50:06;102513.16999999998;;;6.51;84.54
68145;BME280;55400;51.824;-0.196;2023-02-11T04:58:06;102520.31999999999;;;6.49;84.58
68145;BME280;55400;51.824;-0.196;2023-02-11T05:06:06;102531.57;;;6.51;84.58
68145;BME280;55400;51.824;-0.196;2023-02-11T05:10:06;102526.50000000001;;;6.53;84.43
68145;BME280;55400;51.824;-0.196;2023-02-11T05:14:06;102526.50000000001;;;6.56;84.43
68145;BME280;55400;51.824;-0.196;2023-02-11T05:18:06;102524.26000000001;;;6.57;84.40
68145;BME280;55400;51.824;-0.196;2023-02-11T05:30:07;102537.93000000001;;;6.58;84.29
68145;BME280;55400;51.824;-0.196;2023-02-11T05:42:06;102542.48;;;6.57;84.29
68145;BME280;55400;51.824;-0.196;2023-02-11T05:50:06;102545.43000000001;;;6.58;84.29
68145;BME280;55400;51.824;-0.196;2023-02-11T05:54:06;102546.04;;;6.59;84.34
68145;BME280;55400;51.824;-0.196;2023-02-11T05:58:07;102541.83;;;6.60;84.28
68145;BME280;55400;51.824;-0.196;2023-02-11T06:06:08;102549.48999999999;;;6.61;84.22
68145;BME280;55400;51.824;-0.196;2023-02-11T06:10:07;102542.06999999999;;;6.60;84.23
68145;BME280;55400;51.824;-0.196;2023-02-11T06:14:06;102542.18000000001;;;6.61;84.23
68145;BME280;55400;51.824;-0.196;2023-02-11T06:22:06;102540.7;;;6.62;84.16
68145;BME280;55400;51.824;-0.196;2023-02-11T06:26:07;102544.40999999999;;;6.60;84.31
68145;BME280;55400;51.824;-0.196;2023-02-11T06:30:07;102544.40999999999;;;6.58;84.31
68145;BME280;55400;51.824;-0.196;2023-02-11T06:34:06;102549.12;;;6.60;84.33
68145;BME280;55400;51.824;-0.196;2023-02-11T06:38:06;102554.13;;;6.61;84.23
68145;BME280;55400;51.824;-0.196;2023-02-11T06:42:07;102551.89;;;6.62;84.23
68145;BME280;55400;51.824;-0.196;2023-02-11T06:46:07;102551.89;;;6.64;84.18
68145;BME280;55400;51.824;-0.196;2023-02-11T06:50:09;102558.22;;;6.65;84.17
68145;BME280;55400;51.824;-0.196;2023-02-11T06:54:07;102558.22;;;6.66;84.14
68145;BME280;55400;51.824;-0.196;2023-02-11T07:02:08;102559.53;;;6.65;84.11
68145;BME280;55400;51.824;-0.196;2023-02-11T07:06:06;102568.12999999999;;;6.64;84.13
68145;BME280;55400;51.824;-0.196;2023-02-11T07:14:07;102572.76999999999;;;6.65;84.15
68145;BME280;55400;51.824;-0.196;2023-02-11T07:22:06;102572.04999999999;;;6.67;84.15
68145;BME280;55400;51.824;-0.196;2023-02-11T07:26:08;102575.43000000001;;;6.69;84.11
68145;BME280;55400;51.824;-0.196;2023-02-11T07:30:07;102583.15;;;6.71;84.04
68145;BME280;55400;51.824;-0.196;2023-02-11T07:34:08;102583.15;;;6.72;84.04
68145;BME280;55400;51.824;-0.196;2023-02-11T07:38:07;102585.71999999999;;;6.74;83.99
68145;BME280;55400;51.824;-0.196;2023-02-11T07:42:06;102594.95999999999;;;6.75;83.96
68145;BME280;55400;51.824;-0.196;2023-02-11T07:46:07;102595.12999999999;;;6.77;83.94
68145;BME280;55400;51.824;-0.196;2023-02-11T07:50:07;102595.12999999999;;;6.78;83.90
68145;BME280;55400;51.824;-0.196;2023-02-11T07:54:07;102585.86;;;6.76;83.87
68145;BME280;55400;51.824;-0.196;2023-02-11T07:58:07;102585.31;;;6.73;83.88
68145;BME280;55400;51.824;-0.196;2023-02-11T08:02:07;102586.70999999999;;;6.74;83.88
68145;BME280;55400;51.824;-0.196;2023-02-11T08:10:07;102607.81999999999;;;6.75;83.91
68145;BME280;55400;51.824;-0.196;2023-02-11T08:14:07;102614.06;;;6.78;83.81
68145;BME280;55400;51.824;-0.196;2023-02-11T08:18:07;102612.43;;;6.79;83.77
68145;BME280;55400;51.824;-0.196;2023-02-11T08:22:07;102612.43;;;6.84;83.77
68145;BME280;55400;51.824;-0.196;2023-02-11T08:26:08;102624.01999999999;;;6.88;83.72
68145;BME280;55400;51.824;-0.196;2023-02-11T08:30:07;102626.32;;;6.92;83.65
68145;BME280;55400;51.824;-0.196;2023-02-11T08:34:07;102626.32;;;6.96;83.55
68145;BME280;55400;51.824;-0.196;2023-02-11T08:38:07;102614.47;;;7.01;83.48
68145;BME280;55400;51.824;-0.196;2023-02-11T08:42:07;102621.25000000001;;;7.03;83.38
68145;BME280;55400;51.824;-0.196;2023-02-11T08:46:07;102625.23000000001;;;7.04;83.41
68145;BME280;55400;51.824;-0.196;2023-02-11T08:50:07;102625.23000000001;;;7.06;83.43
68145;BME280;55400;51.824;-0.196;2023-02-11T08:54:07;102624.34000000001;;;7.07;83.34
68145;BME280;55400;51.824;-0.196;2023-02-11T08:58:07;102624.34000000001;;;7.10;83.33
68145;BME280;55400;51.824;-0.196;2023-02-11T09:02:08;102619.47;;;7.12;83.40
68145;BME280;55400;51.824;-0.196;2023-02-11T09:06:08;102613.64000000001;;;7.15;83.27
68145;BME280;55400;51.824;-0.196;2023-02-11T09:10:07;102613.64000000001;;;7.19;83.16
68145;BME280;55400;51.824;-0.196;2023-02-11T09:14:07;102619.45000000001;;;7.22;83.11
68145;BME280;55400;51.824;-0.196;2023-02-11T09:18:07;102622.83;;;7.25;83.06
68145;BME280;55400;51.824;-0.196;2023-02-11T09:22:07;102623.52;;;7.29;83.03
68145;BME280;55400;51.824;-0.196;2023-02-11T09:26:07;102618.27;;;7.32;83.04
68145;BME280;55400;51.824;-0.196;2023-02-11T09:30:07;102630.2;;;7.36;83.05
68145;BME280;55400;51.824;-0.196;2023-02-11T09:34:07;102627.45;;;7.38;82.98
68145;BME280;55400;51.824;-0.196;2023-02-11T09:38:07;102628.42000000001;;;7.41;82.70
68145;BME280;55400;51.824;-0.196;2023-02-11T09:42:18;102634.45999999999;;;7.42;82.70
68145;BME280;55400;51.824;-0.196;2023-02-11T09:46:07;102634.45999999999;;;7.45;82.57
68145;BME280;55400;51.824;-0.196;2023-02-11T09:50:09;102631.01999999999;;;7.47;82.55
68145;BME280;55400;51.824;-0.196;2023-02-11T09:54:10;102638.84000000001;;;7.50;82.50
68145;BME280;55400;51.824;-0.196;2023-02-11T09:58:10;102638.84000000001;;;7.51;82.47
68145;BME280;55400;51.824;-0.196;2023-02-11T10:02:09;102642.68999999999;;;7.53;82.29
68145;BME280;55400;51.824;-0.196;2023-02-11T10:06:11;102647.0;;;7.57;82.22
68145;BME280;55400;51.824;-0.196;2023-02-11T10:10:10;102644.48;;;7.63;82.20
68145;BME280;55400;51.824;-0.196;2023-02-11T10:14:10;102643.69999999998;;;7.68;82.20
68145;BME280;55400;51.824;-0.196;2023-02-11T10:18:15;102636.90999999999;;;7.74;82.08
68145;BME280;55400;51.824;-0.196;2023-02-11T10:22:09;102640.28000000001;;;7.76;82.05
68145;BME280;55400;51.824;-0.196;2023-02-11T10:26:09;102640.28000000001;;;7.78;81.97
68145;BME280;55400;51.824;-0.196;2023-02-11T10:30:09;102642.63;;;7.79;81.73
68145;BME280;55400;51.824;-0.196;2023-02-11T10:34:08;102645.70000000001;;;7.82;81.53
68145;BME280;55400;51.824;-0.196;2023-02-11T10:38:07;102645.70000000001;;;7.86;81.53
68145;BME280;55400;51.824;-0.196;2023-02-11T10:42:09;102658.63999999998;;;7.89;81.29
68145;BME280;55400;51.824;-0.196;2023-02-11T10:46:09;102658.63999999998;;;7.92;81.29
68145;BME280;55400;51.824;-0.196;2023-02-11T10:50:16;102655.92;;;7.97;81.15
68145;BME280;55400;51.824;-0.196;2023-02-11T10:54:09;102655.64;;;8.01;80.98
68145;BME280;55400;51.824;-0.196;2023-02-11T10:58:18;102656.08;;;8.05;80.32
68145;BME280;55400;51.824;-0.196;2023-02-11T11:02:17;102662.56000000001;;;8.09;80.32
68145;BME280;55400;51.824;-0.196;2023-02-11T11:06:07;102663.94;;;8.14;79.94
68145;BME280;55400;51.824;-0.196;2023-02-11T11:10:24;102662.70999999999;;;8.21;79.65
68145;BME280;55400;51.824;-0.196;2023-02-11T11:14:12;102662.70999999999;;;8.26;79.65
68145;BME280;55400;51.824;-0.196;2023-02-11T11:18:08;102667.51999999999;;;8.33;78.73
68145;BME280;55400;51.824;-0.196;2023-02-11T11:22:09;102667.51999999999;;;8.47;79.06
68145;BME280;55400;51.824;-0.196;2023-02-11T11:26:08;102655.90999999999;;;8.65;78.92
68145;BME280;55400;51.824;-0.196;2023-02-11T11:30:13;102659.97;;;8.84;78.29
68145;BME280;55400;51.824;-0.196;2023-02-11T11:34:13;102663.49;;;8.99;77.29
68145;BME280;55400;51.824;-0.196;2023-02-11T11:38:10;102663.49;;;9.09;76.91
68145;BME280;55400;51.824;-0.196;2023-02-11T11:46:07;102661.21;;;9.23;75.16
68145;BME280;55400;51.824;-0.196;2023-02-11T11:50:14;102655.7;;;9.27;74.98
68145;BME280;55400;51.824;-0.196;2023-02-11T11:54:08;102649.91;;;9.30;74.98
68145;BME280;55400;51.824;-0.196;2023-02-11T11:58:09;102659.20000000001;;;9.31;75.22
68145;BME280;55400;51.824;-0.196;2023-02-11T12:02:16;102655.81999999999;;;9.29;74.75
68145;BME280;55400;51.824;-0.196;2023-02-11T12:06:11;102655.81999999999;;;9.28;74.79
68145;BME280;55400;51.824;-0.196;2023-02-11T12:10:17;102657.86;;;9.31;75.14
68145;BME280;55400;51.824;-0.196;2023-02-11T12:14:11;102655.31000000001;;;9.35;74.96
68145;BME280;55400;51.824;-0.196;2023-02-11T12:18:11;102663.33;;;9.37;74.95
68145;BME280;55400;51.824;-0.196;2023-02-11T12:30:12;102661.67;;;9.41;74.07
68145;BME280;55400;51.824;-0.196;2023-02-11T12:34:19;102654.56999999999;;;9.42;74.07
68145;BME280;55400;51.824;-0.196;2023-02-11T12:38:12;102652.02999999998;;;9.44;73.26
68145;BME280;55400;51.824;-0.196;2023-02-11T12:42:13;102648.0;;;9.42;73.08
68145;BME280;55400;51.824;-0.196;2023-02-11T12:50:10;102648.36;;;9.37;72.54
68145;BME280;55400;51.824;-0.196;2023-02-11T12:54:14;102642.82;;;9.34;72.11
68145;BME280;55400;51.824;-0.196;2023-02-11T12:58:09;102642.82;;;9.31;72.07
68145;BME280;55400;51.824;-0.196;2023-02-11T13:02:12;102649.45999999999;;;9.25;71.74
68145;BME280;55400;51.824;-0.196;2023-02-11T13:06:08;102649.31999999999;;;9.22;71.81
68145;BME280;55400;51.824;-0.196;2023-02-11T13:10:14;102649.31999999999;;;9.24;71.81
68145;BME280;55400;51.824;-0.196;2023-02-11T13:14:08;102656.7;;;9.25;71.75
68145;BME280;55400;51.824;-0.196;2023-02-11T13:18:11;102656.7;;;9.21;71.73
68145;BME280;55400;51.824;-0.196;2023-02-11T13:22:09;102640.91;;;9.18;71.07
68145;BME280;55400;51.824;-0.196;2023-02-11T13:38:16;102649.45;;;9.17;71.10
68145;BME280;55400;51.824;-0.196;2023-02-11T13:46:09;102638.15;;;9.18;70.63
68145;BME280;55400;51.824;-0.196;2023-02-11T13:50:19;102638.15;;;9.20;71.01
68145;BME280;55400;51.824;-0.196;2023-02-11T13:58:16;102634.53;;;9.18;70.40
68145;BME280;55400;51.824;-0.196;2023-02-11T14:22:11;102624.54000000001;;;9.18;70.04
68145;BME280;55400;51.824;-0.196;2023-02-11T14:26:20;102633.35999999999;;;9.20;69.84
68145;BME280;55400;51.824;-0.196;2023-02-11T14:30:10;102629.98;;;9.23;69.73
68145;BME280;55400;51.824;-0.196;2023-02-11T14:34:16;102629.29999999999;;;9.26;69.67
68145;BME280;55400;51.824;-0.196;2023-02-11T14:50:13;102628.48;;;9.24;69.00
68145;BME280;55400;51.824;-0.196;2023-02-11T14:54:09;102630.10999999999;;;9.23;68.86
68145;BME280;55400;51.824;-0.196;2023-02-11T14:58:12;102630.10999999999;;;9.24;68.86
68145;BME280;55400;51.824;-0.196;2023-02-11T15:02:18;102633.13;;;9.25;68.95
68145;BME280;55400;51.824;-0.196;2023-02-11T15:06:12;102634.71999999999;;;9.23;68.58
68145;BME280;55400;51.824;-0.196;2023-02-11T15:10:13;102637.43;;;9.21;68.56
68145;BME280;55400;51.824;-0.196;2023-02-11T15:14:08;102634.95;;;9.20;68.60
68145;BME280;55400;51.824;-0.196;2023-02-11T15:18:12;102629.26999999999;;;9.19;68.30
68145;BME280;55400;51.824;-0.196;2023-02-11T15:26:11;102635.95;;;9.22;68.27
68145;BME280;55400;51.824;-0.196;2023-02-11T15:34:08;102632.03000000001;;;9.16;67.72
68145;BME280;55400;51.824;-0.196;2023-02-11T15:38:08;102632.03000000001;;;9.15;67.72
68145;BME280;55400;51.824;-0.196;2023-02-11T15:42:16;102633.08;;;9.13;67.77
68145;BME280;55400;51.824;-0.196;2023-02-11T15:46:08;102625.6;;;9.14;67.64
68145;BME280;55400;51.824;-0.196;2023-02-11T15:50:17;102625.6;;;9.15;67.63
68145;BME280;55400;51.824;-0.196;2023-02-11T15:54:14;102624.1;;;9.14;67.46
68145;BME280;55400;51.824;-0.196;2023-02-11T15:58:08;102639.7;;;9.17;67.68
68145;BME280;55400;51.824;-0.196;2023-02-11T16:02:12;102623.21999999999;;;9.14;67.55
68145;BME280;55400;51.824;-0.196;2023-02-11T16:06:16;102621.49999999999;;;9.13;67.55
68145;BME280;55400;51.824;-0.196;2023-02-11T16:10:16;102621.49999999999;;;9.11;67.65
68145;BME280;55400;51.824;-0.196;2023-02-11T16:14:18;102631.86;;;9.05;67.00
68145;BME280;55400;51.824;-0.196;2023-02-11T16:18:12;102629.22000000002;;;9.03;67.30
68145;BME280;55400;51.824;-0.196;2023-02-11T16:22:09;102639.11;;;9.02;67.46
68145;BME280;55400;51.824;-0.196;2023-02-11T16:26:10;102639.16999999998;;;9.01;67.34
68145;BME280;55400;51.824;-0.196;2023-02-11T16:34:16;102640.51999999999;;;8.99;67.53
68145;BME280;55400;51.824;-0.196;2023-02-11T16:38:08;102640.51999999999;;;8.97;67.41
68145;BME280;55400;51.824;-0.196;2023-02-11T16:42:08;102638.34999999999;;;8.92;67.39
68145;BME280;55400;51.824;-0.196;2023-02-11T16:46:09;102644.59;;;8.94;67.69
68145;BME280;55400;51.824;-0.196;2023-02-11T16:50:09;102649.90000000001;;;8.97;67.69
68145;BME280;55400;51.824;-0.196;2023-02-11T16:54:10;102655.62999999999;;;8.93;67.70
68145;BME280;55400;51.824;-0.196;2023-02-11T16:58:08;102655.62999999999;;;8.88;66.98
68145;BME280;55400;51.824;-0.196;2023-02-11T17:02:09;102662.62;;;8.87;67.19
68145;BME280;55400;51.824;-0.196;2023-02-11T17:26:08;102678.37;;;8.88;67.75
68145;BME280;55400;51.824;-0.196;2023-02-11T17:30:09;102681.26999999999;;;8.86;67.93
68145;BME280;55400;51.824;-0.196;2023-02-11T17:46:08;102688.7;;;8.85;67.88
68145;BME280;55400;51.824;-0.196;2023-02-11T17:50:09;102699.45999999999;;;8.81;67.81
68145;BME280;55400;51.824;-0.196;2023-02-11T17:54:10;102699.45999999999;;;8.76;67.98
68145;BME280;55400;51.824;-0.196;2023-02-11T17:58:08;102696.77999999998;;;8.72;68.33
68145;BME280;55400;51.824;-0.196;2023-02-11T18:02:09;102701.21999999999;;;8.70;68.32
68145;BME280;55400;51.824;-0.196;2023-02-11T18:06:08;102703.74999999999;;;8.69;68.49
68145;BME280;55400;51.824;-0.196;2023-02-11T18:14:08;102714.38;;;8.68;68.43
68145;BME280;55400;51.824;-0.196;2023-02-11T18:18:08;102714.38;;;8.67;68.51
68145;BME280;55400;51.824;-0.196;2023-02-11T18:22:08;102727.38999999998;;;8.66;68.40
68145;BME280;55400;51.824;-0.196;2023-02-11T18:26:08;102722.73;;;8.64;68.47
68145;BME280;55400;51.824;-0.196;2023-02-11T18:30:11;102732.69;;;8.62;68.47
68145;BME280;55400;51.824;-0.196;2023-02-11T18:34:09;102734.31;;;8.60;68.60
68145;BME280;55400;51.824;-0.196;2023-02-11T18:38:08;102730.8;;;8.58;68.66
68145;BME280;55400;51.824;-0.196;2023-02-11T18:42:08;102736.84000000001;;;8.55;68.61
68145;BME280;55400;51.824;-0.196;2023-02-11T18:46:09;102737.34999999999;;;8.52;68.81
68145;BME280;55400;51.824;-0.196;2023-02-11T18:50:09;102747.45;;;8.51;68.97
68145;BME280;55400;51.824;-0.196;2023-02-11T18:54:08;102747.27;;;8.48;68.99
68145;BME280;55400;51.824;-0.196;2023-02-11T19:02:09;102740.52999999998;;;8.47;69.07
68145;BME280;55400;51.824;-0.196;2023-02-11T19:06:12;102750.62000000001;;;8.45;69.16
68145;BME280;55400;51.824;-0.196;2023-02-11T19:10:09;102737.05;;;8.42;69.15
68145;BME280;55400;51.824;-0.196;2023-02-11T19:14:08;102744.1;;;8.41;69.20
68145;BME280;55400;51.824;-0.196;2023-02-11T19:18:09;102745.12999999999;;;8.42;69.16
68145;BME280;55400;51.824;-0.196;2023-02-11T19:26:08;102743.31;;;8.41;69.16
68145;BME280;55400;51.824;-0.196;2023-02-11T19:30:09;102750.73;;;8.40;69.01
68145;BME280;55400;51.824;-0.196;2023-02-11T19:38:09;102758.58;;;8.39;68.95
68145;BME280;55400;51.824;-0.196;2023-02-11T19:42:08;102751.83;;;8.40;68.94
68145;BME280;55400;51.824;-0.196;2023-02-11T19:46:08;102751.83;;;8.41;69.05
68145;BME280;55400;51.824;-0.196;2023-02-11T19:50:09;102762.89;;;8.40;68.94
68145;BME280;55400;51.824;-0.196;2023-02-11T19:54:09;102762.89;;;8.38;68.94
68145;BME280;55400;51.824;-0.196;2023-02-11T19:58:08;102762.54;;;8.36;68.75
68145;BME280;55400;51.824;-0.196;2023-02-11T20:02:09;102757.81;;;8.34;68.95
68145;BME280;55400;51.824;-0.196;2023-02-11T20:06:10;102767.4;;;8.31;68.95
68145;BME280;55400;51.824;-0.196;2023-02-11T20:10:09;102765.39;;;8.29;68.98
68145;BME280;55400;51.824;-0.196;2023-02-11T20:14:10;102761.18;;;8.27;69.09
68145;BME280;55400;51.824;-0.196;2023-02-11T20:22:09;102763.87999999999;;;8.25;69.21
68145;BME280;55400;51.824;-0.196;2023-02-11T20:30:09;102765.01000000001;;;8.23;69.33
68145;BME280;55400;51.824;-0.196;2023-02-11T20:34:09;102772.48999999999;;;8.22;69.28
68145;BME280;55400;51.824;-0.196;2023-02-11T20:38:09;102772.48999999999;;;8.20;69.31
68145;BME280;55400;51.824;-0.196;2023-02-11T20:42:09;102779.76000000001;;;8.21;69.53
68145;BME280;55400;51.824;-0.196;2023-02-11T20:46:09;102783.75000000001;;;8.20;69.53
68145;BME280;55400;51.824;-0.196;2023-02-11T20:50:09;102778.41;;;8.17;69.69
68145;BME280;55400;51.824;-0.196;2023-02-11T20:54:10;102782.89;;;8.13;69.69
68145;BME280;55400;51.824;-0.196;2023-02-11T20:58:09;102782.89;;;8.10;69.70
68145;BME280;55400;51.824;-0.196;2023-02-11T21:02:09;102775.9;;;8.07;69.93
68145;BME280;55400;51.824;-0.196;2023-02-11T21:06:09;102775.9;;;8.05;70.10
68145;BME280;55400;51.824;-0.196;2023-02-11T21:10:09;102781.88;;;7.97;70.19
68145;BME280;55400;51.824;-0.196;2023-02-11T21:14:09;102778.81;;;7.93;70.41
68145;BME280;55400;51.824;-0.196;2023-02-11T21:22:09;102788.70999999999;;;7.94;70.47
68145;BME280;55400;51.824;-0.196;2023-02-11T21:26:09;102788.51;;;7.96;70.56
68145;BME280;55400;51.824;-0.196;2023-02-11T21:38:09;102784.94;;;7.94;70.31
68145;BME280;55400;51.824;-0.196;2023-02-11T21:42:09;102780.0;;;7.92;70.31
68145;BME280;55400;51.824;-0.196;2023-02-11T21:46:10;102790.38;;;7.90;70.30
68145;BME280;55400;51.824;-0.196;2023-02-11T21:50:09;102785.81999999999;;;7.89;70.28
68145;BME280;55400;51.824;-0.196;2023-02-11T21:54:09;102784.79;;;7.88;70.36
68145;BME280;55400;51.824;-0.196;2023-02-11T22:02:09;102796.98000000001;;;7.87;70.19
68145;BME280;55400;51.824;-0.196;2023-02-11T22:06:10;102796.98000000001;;;7.89;70.19
68145;BME280;55400;51.824;-0.196;2023-02-11T22:14:09;102802.15000000001;;;7.87;69.70
68145;BME280;55400;51.824;-0.196;2023-02-11T22:18:09;102802.09;;;7.85;69.90
68145;BME280;55400;51.824;-0.196;2023-02-11T22:26:09;102798.04999999999;;;7.86;69.90
68145;BME280;55400;51.824;-0.196;2023-02-11T22:30:09;102797.92;;;7.85;69.72
68145;BME280;55400;51.824;-0.196;2023-02-11T22:34:09;102797.0;;;7.77;69.85
68145;BME280;55400;51.824;-0.196;2023-02-11T22:38:09;102791.58;;;7.76;70.29
68145;BME280;55400;51.824;-0.196;2023-02-11T22:42:09;102793.93;;;7.77;70.29
68145;BME280;55400;51.824;-0.196;2023-02-11T22:46:10;102785.18;;;7.79;70.13
68145;BME280;55400;51.824;-0.196;2023-02-11T22:54:11;102795.09000000001;;;7.78;69.83
68145;BME280;55400;51.824;-0.196;2023-02-11T22:58:09;102793.43;;;7.76;69.73
68145;BME280;55400;51.824;-0.196;2023-02-11T23:02:09;102789.76;;;7.75;69.69
68145;BME280;55400;51.824;-0.196;2023-02-11T23:06:09;102788.56000000001;;;7.74;69.92
68145;BME280;55400;51.824;-0.196;2023-02-11T23:10:09;102797.21999999999;;;7.75;69.92
68145;BME280;55400;51.824;-0.196;2023-02-11T23:14:09;102797.21999999999;;;7.77;69.85
68145;BME280;55400;51.824;-0.196;2023-02-11T23:18:09;102792.87;;;7.75;69.84
68145;BME280;55400;51.824;-0.196;2023-02-11T23:26:09;102791.64000000001;;;7.71;69.85
68145;BME280;55400;51.824;-0.196;2023-02-11T23:30:09;102788.56000000001;;;7.67;69.85
68145;BME280;55400;51.824;-0.196;2023-02-11T23:34:09;102788.56000000001;;;7.64;69.99
68145;BME280;55400;51.824;-0.196;2023-02-11T23:38:09;102795.8;;;7.61;70.02
68145;BME280;55400;51.824;-0.196;2023-02-11T23:42:09;102795.23999999999;;;7.59;70.22
68145;BME280;55400;51.824;-0.196;2023-02-11T23:46:09;102801.71;;;7.60;70.12
68145;BME280;55400;51.824;-0.196;2023-02-11T23:54:09;102795.3;;;7.64;69.40
68145;BME280;55400;51.824;-0.196;2023-02-11T23:58:09;102795.3;;;7.65;69.50
